createdAt,value
2018-01-18T00:01:59.690Z,11.03
2018-01-18T00:04:27.166Z,13.43
2018-01-18T00:06:54.619Z,11.67
2018-01-18T00:09:22.090Z,8.80
2018-01-18T00:11:49.549Z,6.80
2018-01-18T00:14:17.021Z,11.80
2018-01-18T00:16:44.478Z,11.60
2018-01-18T00:19:11.950Z,13.30
2018-01-18T00:21:39.394Z,16.83
2018-01-18T00:24:06.864Z,15.77
2018-01-18T00:26:34.315Z,8.13
2018-01-18T00:29:01.796Z,13.70
2018-01-18T00:31:29.246Z,19.23
2018-01-18T00:33:56.714Z,13.97
2018-01-18T00:36:24.174Z,10.07
2018-01-18T00:38:51.641Z,11.00
2018-01-18T00:41:19.097Z,6.10
2018-01-18T00:43:46.561Z,9.07
2018-01-18T00:46:14.011Z,6.87
2018-01-18T00:48:41.488Z,5.23
2018-01-18T00:51:08.930Z,5.40
2018-01-18T00:53:36.406Z,10.63
2018-01-18T00:56:03.849Z,5.27
2018-01-18T00:58:31.319Z,7.97
2018-01-18T01:00:58.798Z,7.20
2018-01-18T01:03:26.264Z,7.70
2018-01-18T01:05:53.720Z,7.50
2018-01-18T01:08:21.198Z,10.23
2018-01-18T01:10:48.647Z,12.37
2018-01-18T01:13:16.106Z,12.27
2018-01-18T01:15:43.576Z,8.83
2018-01-18T01:18:11.052Z,5.73
2018-01-18T01:20:38.518Z,7.77
2018-01-18T01:23:05.978Z,10.73
2018-01-18T01:25:33.444Z,8.47
2018-01-18T01:28:00.896Z,9.43
2018-01-18T01:30:28.367Z,9.53
2018-01-18T01:32:55.811Z,9.07
2018-01-18T01:35:23.288Z,10.10
2018-01-18T01:37:50.739Z,6.80
2018-01-18T01:40:18.226Z,9.60
2018-01-18T01:42:45.671Z,9.77
2018-01-18T01:45:13.142Z,8.10
2018-01-18T01:47:40.595Z,8.93
2018-01-18T01:50:08.067Z,10.70
2018-01-18T01:52:35.527Z,15.00
2018-01-18T01:55:03.089Z,10.07
2018-01-18T01:57:30.530Z,7.13
2018-01-18T01:59:58.003Z,7.97
2018-01-18T02:02:25.463Z,10.43
2018-01-18T02:04:52.939Z,14.00
2018-01-18T02:07:20.390Z,6.53
2018-01-18T02:09:47.862Z,8.10
2018-01-18T02:12:15.318Z,6.63
2018-01-18T02:14:42.790Z,5.07
2018-01-18T02:17:10.230Z,3.13
2018-01-18T02:19:37.696Z,6.07
2018-01-18T02:22:05.143Z,4.00
2018-01-18T02:24:32.614Z,6.60
2018-01-18T02:27:00.111Z,3.97
2018-01-18T02:29:27.575Z,2.83
2018-01-18T02:31:55.018Z,4.63
2018-01-18T02:34:22.491Z,4.07
2018-01-18T02:36:49.955Z,4.13
2018-01-18T02:39:17.411Z,5.20
2018-01-18T02:41:44.895Z,4.00
2018-01-18T02:44:12.350Z,4.53
2018-01-18T02:46:39.819Z,4.27
2018-01-18T02:49:07.311Z,5.20
2018-01-18T02:51:34.791Z,2.67
2018-01-18T02:54:02.254Z,5.50
2018-01-18T02:56:29.732Z,5.00
2018-01-18T02:58:57.178Z,4.60
2018-01-18T03:01:24.642Z,3.53
2018-01-18T03:03:52.094Z,2.70
2018-01-18T03:06:19.566Z,4.53
2018-01-18T03:08:47.103Z,5.47
2018-01-18T03:11:14.570Z,2.77
2018-01-18T03:13:42.018Z,3.37
2018-01-18T03:16:09.494Z,5.43
2018-01-18T03:18:36.938Z,4.10
2018-01-18T03:21:04.405Z,2.47
2018-01-18T03:23:31.850Z,3.23
2018-01-18T03:25:59.322Z,2.83
2018-01-18T03:28:26.778Z,2.90
2018-01-18T03:30:54.244Z,4.77
2018-01-18T03:33:21.702Z,2.03
2018-01-18T03:35:49.179Z,3.83
2018-01-18T03:38:16.632Z,2.90
2018-01-18T03:40:44.111Z,3.87
2018-01-18T03:43:11.558Z,2.50
2018-01-18T03:45:39.033Z,5.23
2018-01-18T03:48:06.493Z,3.73
2018-01-18T03:50:33.959Z,2.70
2018-01-18T03:53:01.450Z,3.60
2018-01-18T03:55:28.923Z,2.07
2018-01-18T03:57:56.402Z,4.40
2018-01-18T04:00:23.851Z,3.47
2018-01-18T04:02:51.326Z,1.40
2018-01-18T04:05:18.775Z,2.17
2018-01-18T04:07:46.250Z,1.20
2018-01-18T04:10:13.702Z,1.47
2018-01-18T04:12:41.174Z,0.83
2018-01-18T04:15:08.626Z,2.73
2018-01-18T04:17:36.103Z,2.73
2018-01-18T04:20:03.556Z,0.80
2018-01-18T04:22:31.025Z,1.47
2018-01-18T04:24:58.480Z,1.00
2018-01-18T04:27:25.953Z,1.00
2018-01-18T04:29:53.408Z,2.37
2018-01-18T04:32:20.875Z,1.97
2018-01-18T04:34:48.326Z,1.17
2018-01-18T04:37:15.799Z,0.17
2018-01-18T04:39:43.251Z,0.93
2018-01-18T04:42:10.724Z,0.10
2018-01-18T04:44:38.171Z,0.10
2018-01-18T04:47:05.723Z,0.03
2018-01-18T04:49:33.176Z,0.07
2018-01-18T04:52:00.647Z,0.10
2018-01-18T04:54:28.110Z,0.10
2018-01-18T04:56:55.585Z,0.10
2018-01-18T04:59:23.038Z,0.20
2018-01-18T05:01:50.515Z,0.30
2018-01-18T05:04:17.987Z,0.17
2018-01-18T05:06:45.470Z,0.10
2018-01-18T05:09:12.934Z,1.90
2018-01-18T05:11:40.407Z,0.10
2018-01-18T05:14:07.861Z,0.20
2018-01-18T05:16:35.334Z,0.10
2018-01-18T05:19:02.782Z,0.30
2018-01-18T05:21:30.244Z,0.10
2018-01-18T05:23:57.722Z,0.10
2018-01-18T05:26:25.174Z,0.10
2018-01-18T05:28:52.642Z,0.30
2018-01-18T05:31:20.095Z,0.80
2018-01-18T05:33:47.558Z,0.10
2018-01-18T05:36:15.013Z,0.30
2018-01-18T05:38:42.478Z,0.27
2018-01-18T05:41:10.882Z,0.17
2018-01-18T05:43:38.343Z,0.30
2018-01-18T05:46:05.795Z,0.20
2018-01-18T05:48:33.267Z,0.20
2018-01-18T05:51:00.715Z,0.00
2018-01-18T05:53:28.194Z,0.10
2018-01-18T05:55:55.661Z,1.47
2018-01-18T05:58:23.141Z,0.20
2018-01-18T06:00:50.590Z,0.23
2018-01-18T06:03:18.056Z,0.53
2018-01-18T06:05:45.499Z,0.13
2018-01-18T06:08:12.974Z,0.30
2018-01-18T06:10:40.429Z,0.20
2018-01-18T06:13:07.894Z,0.20
2018-01-18T06:15:35.343Z,0.20
2018-01-18T06:18:02.820Z,0.30
2018-01-18T06:20:30.267Z,0.40
2018-01-18T06:22:57.753Z,0.10
2018-01-18T06:25:25.215Z,0.10
2018-01-18T06:27:52.699Z,0.20
2018-01-18T06:30:20.155Z,0.27
2018-01-18T06:32:47.622Z,0.20
2018-01-18T06:35:15.153Z,0.30
2018-01-18T06:37:42.621Z,0.10
2018-01-18T06:40:10.075Z,0.30
2018-01-18T06:45:11.264Z,0.20
2018-01-18T06:47:38.738Z,1.17
2018-01-18T06:50:06.193Z,0.20
2018-01-18T06:52:33.641Z,0.80
2018-01-18T06:55:01.107Z,0.40
2018-01-18T06:57:28.565Z,0.20
2018-01-18T06:59:56.042Z,0.43
2018-01-18T07:02:23.494Z,0.60
2018-01-18T07:04:50.968Z,0.87
2018-01-18T07:07:18.418Z,0.93
2018-01-18T07:09:45.894Z,0.63
2018-01-18T07:12:13.350Z,0.93
2018-01-18T07:14:40.814Z,1.30
2018-01-18T07:17:08.258Z,2.20
2018-01-18T07:19:35.747Z,0.50
2018-01-18T07:22:03.202Z,0.10
2018-01-18T07:24:30.687Z,0.47
2018-01-18T07:26:58.138Z,0.83
2018-01-18T07:29:25.617Z,0.20
2018-01-18T07:31:53.075Z,0.27
2018-01-18T07:34:20.600Z,0.10
2018-01-18T07:36:48.014Z,0.20
2018-01-18T07:39:15.479Z,0.30
2018-01-18T07:41:43.030Z,0.23
2018-01-18T07:44:10.498Z,0.20
2018-01-18T07:46:37.954Z,0.17
2018-01-18T07:49:05.436Z,0.40
2018-01-18T07:51:32.891Z,0.67
2018-01-18T07:54:00.500Z,1.97
2018-01-18T07:56:27.950Z,1.27
2018-01-18T07:58:55.477Z,0.60
2018-01-18T08:01:22.930Z,0.10
2018-01-18T08:03:56.082Z,3.37
2018-01-18T08:06:23.542Z,1.13
2018-01-18T08:08:51.012Z,0.40
2018-01-18T08:11:18.462Z,0.80
2018-01-18T08:13:45.919Z,0.47
2018-01-18T08:16:13.399Z,1.50
2018-01-18T08:18:40.868Z,1.20
2018-01-18T08:21:08.350Z,1.50
2018-01-18T08:23:35.806Z,4.33
2018-01-18T08:26:03.275Z,3.30
2018-01-18T08:28:30.731Z,3.07
2018-01-18T08:30:58.207Z,2.67
2018-01-18T08:33:25.672Z,2.53
2018-01-18T08:35:53.170Z,4.37
2018-01-18T08:38:20.636Z,1.83
2018-01-18T08:40:48.126Z,3.90
2018-01-18T08:43:16.183Z,0.47
2018-01-18T08:45:43.675Z,1.87
2018-01-18T08:48:11.131Z,6.03
2018-01-18T08:50:38.617Z,4.90
2018-01-18T08:53:06.075Z,5.93
2018-01-18T08:55:33.550Z,4.77
2018-01-18T08:58:01.010Z,8.27
2018-01-18T09:00:28.486Z,10.13
2018-01-18T09:02:55.946Z,3.07
2018-01-18T09:05:23.434Z,11.43
2018-01-18T09:07:50.890Z,14.43
2018-01-18T09:10:18.371Z,7.70
2018-01-18T09:12:45.828Z,9.90
2018-01-18T09:15:13.319Z,11.27
2018-01-18T09:17:40.787Z,12.20
2018-01-18T09:20:08.267Z,11.97
2018-01-18T09:22:35.722Z,9.67
2018-01-18T09:25:03.211Z,10.53
2018-01-18T09:27:30.683Z,11.33
2018-01-18T09:29:58.175Z,12.10
2018-01-18T09:32:25.639Z,12.00
2018-01-18T09:34:53.133Z,9.73
2018-01-18T09:37:20.597Z,8.57
2018-01-18T09:39:48.059Z,13.77
2018-01-18T09:42:15.551Z,13.37
2018-01-18T09:44:43.015Z,13.73
2018-01-18T09:47:10.498Z,12.90
2018-01-18T09:49:37.975Z,13.63
2018-01-18T09:52:05.462Z,11.53
2018-01-18T09:54:32.926Z,11.23
2018-01-18T09:57:00.406Z,10.50
2018-01-18T09:59:27.882Z,11.03
2018-01-18T10:01:55.351Z,9.90
2018-01-18T10:04:22.807Z,11.33
2018-01-18T10:06:50.295Z,13.70
2018-01-18T10:09:17.774Z,9.67
2018-01-18T10:11:45.260Z,10.50
2018-01-18T10:14:12.730Z,10.73
2018-01-18T10:16:40.208Z,9.93
2018-01-18T10:19:07.694Z,15.03
2018-01-18T10:21:36.099Z,15.63
2018-01-18T10:24:03.558Z,11.07
2018-01-18T10:26:31.046Z,7.67
2018-01-18T10:28:58.515Z,11.53
2018-01-18T10:31:26.027Z,7.00
2018-01-18T10:33:53.667Z,12.20
2018-01-18T10:36:21.150Z,10.13
2018-01-18T10:38:48.610Z,9.07
2018-01-18T10:41:16.094Z,11.47
2018-01-18T10:43:43.550Z,9.43
2018-01-18T10:46:11.031Z,8.60
2018-01-18T10:48:40.458Z,10.83
2018-01-18T10:51:07.942Z,10.07
2018-01-18T10:53:35.417Z,10.27
2018-01-18T10:56:02.913Z,7.73
2018-01-18T10:58:30.384Z,8.00
2018-01-18T11:00:57.867Z,6.80
2018-01-18T11:03:25.350Z,8.23
2018-01-18T11:05:52.811Z,7.73
2018-01-18T11:08:20.299Z,6.37
2018-01-18T11:10:47.755Z,6.97
2018-01-18T11:13:15.248Z,5.17
2018-01-18T11:15:42.715Z,5.83
2018-01-18T11:18:10.187Z,2.83
2018-01-18T11:20:37.640Z,9.20
2018-01-18T11:23:05.130Z,5.00
2018-01-18T11:25:32.587Z,2.03
2018-01-18T11:28:00.142Z,4.93
2018-01-18T11:30:27.591Z,6.93
2018-01-18T11:32:55.066Z,2.73
2018-01-18T11:35:23.292Z,3.97
2018-01-18T11:37:50.771Z,12.50
2018-01-18T11:40:18.223Z,6.33
2018-01-18T11:42:45.694Z,4.17
2018-01-18T11:45:13.156Z,4.57
2018-01-18T11:47:40.644Z,3.67
2018-01-18T11:50:08.142Z,4.03
2018-01-18T11:52:35.629Z,8.73
2018-01-18T11:55:03.084Z,3.00
2018-01-18T11:57:30.559Z,4.43
2018-01-18T11:59:58.035Z,2.83
2018-01-18T12:02:25.523Z,4.40
2018-01-18T12:04:52.981Z,5.87
2018-01-18T12:07:20.466Z,4.60
2018-01-18T12:09:47.922Z,6.93
2018-01-18T12:12:15.419Z,8.03
2018-01-18T12:14:42.880Z,2.57
2018-01-18T12:17:10.360Z,2.20
2018-01-18T12:19:37.823Z,2.07
2018-01-18T12:22:05.317Z,2.07
2018-01-18T12:24:32.791Z,7.37
2018-01-18T12:27:00.278Z,8.07
2018-01-18T12:29:27.735Z,5.07
2018-01-18T12:31:55.191Z,7.53
2018-01-18T12:34:22.661Z,5.77
2018-01-18T12:36:50.134Z,5.87
2018-01-18T12:39:17.623Z,6.13
2018-01-18T12:41:45.084Z,4.57
2018-01-18T12:44:12.558Z,4.23
2018-01-18T12:46:40.019Z,7.20
2018-01-18T12:49:07.491Z,9.07
2018-01-18T12:51:34.942Z,5.47
2018-01-18T12:54:02.422Z,4.83
2018-01-18T12:56:29.870Z,6.87
2018-01-18T12:58:57.411Z,2.97
2018-01-18T13:01:24.863Z,1.80
2018-01-18T13:03:52.352Z,4.57
2018-01-18T13:06:19.808Z,2.83
2018-01-18T13:08:47.301Z,2.77
2018-01-18T13:11:14.883Z,7.17
2018-01-18T13:13:42.377Z,5.67
2018-01-18T13:16:10.597Z,6.93
2018-01-18T13:18:38.148Z,3.37
2018-01-18T13:21:05.687Z,2.17
2018-01-18T13:23:33.274Z,3.97
2018-01-18T13:26:00.754Z,6.00
2018-01-18T13:28:28.243Z,2.60
2018-01-18T13:30:55.706Z,3.03
2018-01-18T13:33:23.327Z,3.03
2018-01-18T13:35:50.871Z,5.97
2018-01-18T13:38:18.406Z,1.47
2018-01-18T13:40:45.880Z,4.27
2018-01-18T13:43:13.492Z,2.40
2018-01-18T13:45:41.016Z,2.63
2018-01-18T13:48:09.046Z,7.03
2018-01-18T13:50:36.516Z,2.33
2018-01-18T13:53:03.999Z,3.03
2018-01-18T13:55:31.465Z,2.17
2018-01-18T13:57:58.918Z,1.93
2018-01-18T14:00:26.386Z,1.53
2018-01-18T14:02:53.840Z,5.53
2018-01-18T14:05:21.326Z,2.17
2018-01-18T14:07:48.925Z,5.43
2018-01-18T14:10:16.438Z,3.33
2018-01-18T14:12:43.888Z,5.73
2018-01-18T14:15:11.361Z,2.00
2018-01-18T14:17:38.816Z,1.93
2018-01-18T14:20:06.299Z,2.60
2018-01-18T14:22:33.752Z,1.17
2018-01-18T14:25:01.263Z,2.70
2018-01-18T14:27:28.787Z,2.73
2018-01-18T14:29:56.282Z,4.43
2018-01-18T14:32:23.738Z,2.87
2018-01-18T14:34:51.218Z,2.80
2018-01-18T14:37:18.671Z,1.07
2018-01-18T14:39:46.152Z,1.90
2018-01-18T14:42:13.610Z,3.53
2018-01-18T14:44:41.083Z,4.53
2018-01-18T14:47:08.540Z,5.97
2018-01-18T14:49:36.007Z,2.97
2018-01-18T14:52:03.459Z,6.27
2018-01-18T14:54:30.941Z,2.17
2018-01-18T14:56:58.402Z,4.30
2018-01-18T14:59:25.885Z,4.47
2018-01-18T15:01:53.347Z,4.87
2018-01-18T15:04:20.810Z,4.40
2018-01-18T15:06:48.310Z,4.43
2018-01-18T15:09:15.787Z,4.67
2018-01-18T15:11:43.242Z,2.67
2018-01-18T15:14:10.715Z,3.73
2018-01-18T15:16:38.191Z,6.87
2018-01-18T15:19:05.659Z,10.43
2018-01-18T15:21:33.127Z,4.27
2018-01-18T15:24:00.574Z,2.63
2018-01-18T15:26:28.057Z,4.77
2018-01-18T15:28:55.507Z,4.63
2018-01-18T15:31:23.050Z,3.27
2018-01-18T15:33:50.511Z,2.10
2018-01-18T15:36:17.978Z,1.47
2018-01-18T15:38:45.435Z,2.53
2018-01-18T15:41:12.907Z,5.10
2018-01-18T15:43:40.432Z,2.40
2018-01-18T15:46:07.908Z,3.50
2018-01-18T15:48:35.362Z,3.10
2018-01-18T15:51:02.888Z,3.10
2018-01-18T15:53:32.511Z,4.73
2018-01-18T15:55:59.983Z,1.03
2018-01-18T15:58:27.442Z,4.27
2018-01-18T16:00:54.906Z,1.90
2018-01-18T16:03:22.353Z,0.97
2018-01-18T16:05:50.055Z,4.60
2018-01-18T16:08:17.750Z,5.93
2018-01-18T16:10:45.234Z,6.47
2018-01-18T16:13:12.686Z,2.47
2018-01-18T16:15:40.215Z,4.30
2018-01-18T16:18:07.670Z,5.57
2018-01-18T16:20:35.164Z,7.90
2018-01-18T16:23:02.656Z,4.13
2018-01-18T16:25:30.143Z,4.43
2018-01-18T16:27:57.597Z,2.97
2018-01-18T16:30:25.075Z,5.10
2018-01-18T16:32:52.534Z,7.20
2018-01-18T16:35:20.003Z,5.03
2018-01-18T16:37:47.463Z,3.53
2018-01-18T16:40:14.939Z,4.93
2018-01-18T16:42:42.394Z,12.63
2018-01-18T16:45:09.853Z,10.00
2018-01-18T16:47:37.378Z,9.57
2018-01-18T16:50:04.831Z,22.43
2018-01-18T16:52:32.311Z,29.33
2018-01-18T16:54:59.766Z,7.63
2018-01-18T16:57:27.287Z,7.20
2018-01-18T16:59:54.712Z,5.20
2018-01-18T17:02:22.204Z,8.97
2018-01-18T17:04:49.654Z,7.33
2018-01-18T17:07:17.121Z,4.90
2018-01-18T17:09:44.574Z,4.67
2018-01-18T17:12:12.082Z,4.67
2018-01-18T17:14:39.520Z,5.83
2018-01-18T17:17:06.990Z,6.57
2018-01-18T17:19:34.447Z,5.03
2018-01-18T17:22:01.940Z,14.87
2018-01-18T17:24:29.409Z,23.90
2018-01-18T17:26:56.883Z,13.03
2018-01-18T17:29:24.326Z,9.93
2018-01-18T17:31:51.797Z,13.73
2018-01-18T17:34:19.270Z,16.63
2018-01-18T17:36:46.741Z,19.13
2018-01-18T17:39:14.199Z,22.17
2018-01-18T17:41:41.684Z,15.70
2018-01-18T17:44:09.142Z,9.40
2018-01-18T17:46:36.615Z,5.80
2018-01-18T17:49:04.075Z,6.77
2018-01-18T17:51:31.536Z,5.63
2018-01-18T17:53:58.987Z,6.93
2018-01-18T17:56:26.459Z,5.30
2018-01-18T17:58:53.918Z,6.67
2018-01-18T18:01:21.385Z,5.10
2018-01-18T18:03:48.847Z,5.60
2018-01-18T18:06:16.318Z,7.17
2018-01-18T18:08:43.778Z,6.10
2018-01-18T18:11:11.231Z,7.33
2018-01-18T18:13:38.730Z,6.87
2018-01-18T18:16:06.192Z,7.13
2018-01-18T18:18:33.658Z,6.03
2018-01-18T18:21:01.118Z,13.50
2018-01-18T18:23:28.586Z,9.03
2018-01-18T18:25:56.048Z,7.93
2018-01-18T18:28:23.747Z,8.10
2018-01-18T18:30:51.202Z,6.13
2018-01-18T18:33:18.688Z,4.63
2018-01-18T18:35:46.151Z,9.00
2018-01-18T18:38:13.636Z,5.83
2018-01-18T18:40:41.096Z,11.37
2018-01-18T18:43:08.575Z,14.40
2018-01-18T18:45:36.028Z,5.40
2018-01-18T18:48:03.503Z,6.33
2018-01-18T18:50:30.954Z,3.27
2018-01-18T18:52:58.433Z,4.60
2018-01-18T18:55:25.879Z,9.27
2018-01-18T18:57:53.365Z,6.10
2018-01-18T19:00:20.819Z,2.73
2018-01-18T19:02:48.295Z,1.80
2018-01-18T19:05:15.748Z,4.90
2018-01-18T19:07:43.222Z,3.23
2018-01-18T19:10:10.672Z,2.57
2018-01-18T19:12:38.139Z,1.73
2018-01-18T19:15:05.590Z,2.67
2018-01-18T19:17:33.067Z,4.67
2018-01-18T19:20:00.523Z,4.50
2018-01-18T19:22:27.998Z,4.27
2018-01-18T19:24:55.448Z,3.33
2018-01-18T19:27:22.924Z,1.00
2018-01-18T19:29:50.410Z,5.47
2018-01-18T19:32:17.878Z,3.03
2018-01-18T19:34:45.348Z,0.93
2018-01-18T19:37:12.794Z,3.60
2018-01-18T19:39:40.271Z,1.93
2018-01-18T19:42:07.757Z,9.50
2018-01-18T19:44:35.232Z,15.43
2018-01-18T19:47:02.686Z,9.23
2018-01-18T19:49:30.155Z,2.03
2018-01-18T19:51:57.607Z,1.77
2018-01-18T19:54:25.083Z,7.83
2018-01-18T19:56:52.554Z,2.27
2018-01-18T19:59:20.019Z,1.60
2018-01-18T20:01:47.482Z,2.27
2018-01-18T20:04:15.943Z,2.63
2018-01-18T20:06:43.390Z,2.10
2018-01-18T20:09:10.859Z,4.80
2018-01-18T20:11:38.307Z,4.10
2018-01-18T20:14:05.790Z,3.10
2018-01-18T20:16:33.254Z,2.07
2018-01-18T20:19:00.732Z,4.00
2018-01-18T20:21:28.195Z,4.53
2018-01-18T20:23:55.688Z,2.53
2018-01-18T20:26:23.147Z,2.53
2018-01-18T20:28:50.638Z,3.20
2018-01-18T20:31:18.092Z,3.87
2018-01-18T20:33:45.680Z,5.17
2018-01-18T20:36:16.746Z,3.87
2018-01-18T20:38:44.223Z,3.37
2018-01-18T20:41:11.675Z,3.70
2018-01-18T20:43:39.149Z,6.53
2018-01-18T20:46:06.606Z,4.50
2018-01-18T20:48:36.086Z,5.27
2018-01-18T20:51:03.545Z,7.07
2018-01-18T20:53:31.023Z,8.00
2018-01-18T20:55:58.491Z,5.73
2018-01-18T20:58:25.947Z,6.17
2018-01-18T21:00:53.431Z,5.47
2018-01-18T21:03:20.892Z,5.67
2018-01-18T21:05:48.367Z,4.63
2018-01-18T21:08:15.823Z,9.17
2018-01-18T21:10:43.297Z,6.13
2018-01-18T21:13:10.747Z,9.60
2018-01-18T21:15:38.232Z,6.13
2018-01-18T21:18:05.723Z,6.40
2018-01-18T21:20:33.174Z,6.60
2018-01-18T21:23:00.646Z,6.57
2018-01-18T21:25:28.104Z,7.40
2018-01-18T21:27:55.642Z,9.30
2018-01-18T21:30:23.118Z,11.40
2018-01-18T21:32:50.601Z,6.30
2018-01-18T21:35:18.054Z,6.30
2018-01-18T21:37:45.498Z,7.80
2018-01-18T21:40:13.019Z,8.23
2018-01-18T21:42:40.472Z,6.73
2018-01-18T21:45:07.946Z,7.50
2018-01-18T21:47:35.403Z,8.97
2018-01-18T21:50:02.874Z,8.50
2018-01-18T21:52:30.328Z,7.87
2018-01-18T21:54:57.807Z,9.33
2018-01-18T21:57:25.263Z,7.37
2018-01-18T21:59:52.743Z,8.00
2018-01-18T22:02:20.202Z,8.27
2018-01-18T22:04:47.699Z,12.67
2018-01-18T22:07:15.164Z,12.67
2018-01-18T22:09:42.654Z,10.83
2018-01-18T22:12:10.135Z,10.43
2018-01-18T22:14:37.616Z,6.67
2018-01-18T22:17:05.074Z,6.97
2018-01-18T22:19:32.546Z,7.00
2018-01-18T22:22:00.006Z,9.30
2018-01-18T22:24:27.483Z,7.07
2018-01-18T22:26:54.935Z,8.13
2018-01-18T22:29:22.414Z,7.40
2018-01-18T22:31:49.876Z,7.83
2018-01-18T22:34:17.347Z,9.63
2018-01-18T22:36:44.833Z,11.30
2018-01-18T22:39:12.284Z,8.43
2018-01-18T22:41:39.758Z,8.90
2018-01-18T22:44:07.218Z,6.23
2018-01-18T22:46:34.703Z,10.13
